Time;durP1;ratioP1;P1;durP2;ratioP2;P2;SDS_P1;SDS_P2;PMS_P1;PMS_P2;Temp;Humidity;BMP_temperature;BMP_pressure;BME280_temperature;BME280_humidity;BME280_pressure;Samples;Min_cycle;Max_cycle;Signal;HPM_P1;HPM_P2
2023/06/26 00:02:13;;;;;;;17.38;12.38;;;;;;;23.84;100.00;101115.81;5034315;28;20042;-72
2023/06/26 00:04:39;;;;;;;13.82;11.75;;;;;;;23.77;100.00;101121.16;5037777;28;20048;-71
2023/06/26 00:07:05;;;;;;;17.75;12.93;;;;;;;23.82;100.00;101112.44;5041544;28;20994;-72
2023/06/26 00:09:31;;;;;;;14.40;11.93;;;;;;;23.74;100.00;101115.19;5040109;28;20598;-73
2023/06/26 00:11:56;;;;;;;13.63;11.50;;;;;;;23.75;100.00;101108.75;5034039;28;20044;-71
2023/06/26 00:14:22;;;;;;;15.10;11.82;;;;;;;23.65;100.00;101110.81;5033698;28;20037;-74
2023/06/26 00:16:49;;;;;;;14.43;11.68;;;;;;;23.72;100.00;101112.66;5036407;28;20773;-74
2023/06/26 00:19:15;;;;;;;12.35;10.93;;;;;;;23.58;100.00;101104.34;5034780;28;20041;-73
2023/06/26 00:21:46;;;;;;;14.60;12.15;;;;;;;23.61;100.00;101104.84;5035178;28;20133;-73
2023/06/26 00:24:12;;;;;;;14.82;13.20;;;;;;;23.59;100.00;101092.41;5043326;28;20029;-71
2023/06/26 00:26:38;;;;;;;16.58;13.32;;;;;;;23.63;100.00;101096.50;5038308;28;20152;-74
2023/06/26 00:29:04;;;;;;;14.60;12.18;;;;;;;23.61;100.00;101087.66;5032343;28;20855;-71
2023/06/26 00:31:30;;;;;;;17.77;13.13;;;;;;;23.58;100.00;101083.41;5046984;28;20872;-73
2023/06/26 00:33:56;;;;;;;17.73;13.23;;;;;;;23.55;100.00;101081.06;5035922;28;20044;-71
2023/06/26 00:36:23;;;;;;;16.27;12.15;;;;;;;23.49;100.00;101076.28;5036303;28;20064;-71
2023/06/26 00:38:50;;;;;;;14.65;12.48;;;;;;;23.57;100.00;101079.00;5036526;28;20045;-71
2023/06/26 00:41:15;;;;;;;14.05;11.88;;;;;;;23.49;100.00;101079.88;5043422;28;20272;-73
2023/06/26 00:43:41;;;;;;;15.73;11.48;;;;;;;23.53;100.00;101070.31;5049370;28;20072;-73
2023/06/26 00:46:11;;;;;;;16.65;11.02;;;;;;;23.47;100.00;101068.31;5035688;28;20041;-73
2023/06/26 00:48:39;;;;;;;16.13;12.77;;;;;;;23.53;100.00;101069.47;5037905;28;20116;-73
2023/06/26 00:51:06;;;;;;;12.80;10.80;;;;;;;23.42;100.00;101065.25;5032513;28;20039;-74
2023/06/26 00:53:33;;;;;;;14.30;12.80;;;;;;;23.44;100.00;101068.66;5037829;28;20159;-74
2023/06/26 00:55:59;;;;;;;19.38;13.40;;;;;;;23.25;100.00;101055.47;5038713;28;20080;-71
2023/06/26 00:58:25;;;;;;;16.17;13.18;;;;;;;23.39;100.00;101057.44;5032260;28;20026;-72
2023/06/26 01:00:52;;;;;;;14.80;12.95;;;;;;;23.30;100.00;101055.78;5032930;28;20041;-74
2023/06/26 01:03:22;;;;;;;14.35;12.38;;;;;;;23.40;100.00;101058.31;5032889;28;20040;-71
2023/06/26 01:05:50;;;;;;;17.08;13.27;;;;;;;23.32;100.00;101053.72;5038660;28;20034;-74
2023/06/26 01:08:18;;;;;;;18.10;12.55;;;;;;;23.35;100.00;101052.53;5036030;28;20033;-73
2023/06/26 01:10:45;;;;;;;15.98;11.90;;;;;;;23.35;100.00;101053.38;5032686;28;20134;-73
2023/06/26 01:13:13;;;;;;;15.60;13.13;;;;;;;23.38;100.00;101061.19;5031984;28;20053;-73
2023/06/26 01:15:40;;;;;;;16.40;13.48;;;;;;;23.34;100.00;101056.25;5032477;28;20048;-74
2023/06/26 01:18:06;;;;;;;16.83;13.95;;;;;;;23.33;100.00;101060.00;5031064;28;20550;-74
2023/06/26 01:20:37;;;;;;;16.27;13.48;;;;;;;22.93;100.00;101065.38;5032240;28;20037;-73
2023/06/26 01:23:08;;;;;;;15.80;12.90;;;;;;;23.14;100.00;101069.41;5039073;28;20033;-73
2023/06/26 01:25:48;;;;;;;15.40;13.35;;;;;;;22.94;100.00;101056.22;5032903;28;20163;-72
2023/06/26 01:28:14;;;;;;;17.30;13.75;;;;;;;23.06;100.00;101053.13;5041007;28;20081;-72
2023/06/26 01:30:43;;;;;;;15.32;11.57;;;;;;;23.17;100.00;101055.47;5037753;28;20037;-73
2023/06/26 01:33:10;;;;;;;18.85;13.98;;;;;;;23.22;100.00;101055.81;5037261;28;20904;-72
2023/06/26 01:35:36;;;;;;;20.65;15.07;;;;;;;23.08;100.00;101059.22;5030317;28;20043;-72
2023/06/26 01:38:20;;;;;;;17.45;14.13;;;;;;;23.23;100.00;101061.06;5032448;28;20164;-73
2023/06/26 01:40:46;;;;;;;18.45;15.35;;;;;;;23.15;100.00;101054.81;5039500;28;21020;-73
2023/06/26 01:43:48;;;;;;;17.48;15.07;;;;;;;23.17;100.00;101058.19;5035310;28;20034;-72
2023/06/26 01:46:23;;;;;;;18.17;14.65;;;;;;;23.02;100.00;101066.22;5038463;28;21259;-72
2023/06/26 01:49:28;;;;;;;21.45;15.90;;;;;;;23.05;100.00;101056.88;5041014;28;20040;-72
2023/06/26 01:52:21;;;;;;;18.58;15.63;;;;;;;22.98;100.00;101053.97;5032834;28;20049;-73
2023/06/26 01:55:14;;;;;;;21.02;16.05;;;;;;;23.06;100.00;101062.13;5063926;28;20025;-72
2023/06/26 01:57:42;;;;;;;17.60;14.10;;;;;;;23.18;100.00;101070.78;5047794;28;20994;-72
2023/06/26 02:00:10;;;;;;;17.25;14.88;;;;;;;23.05;100.00;101070.47;5035695;28;20107;-73
2023/06/26 02:02:42;;;;;;;19.60;15.88;;;;;;;22.95;100.00;101078.81;5034358;28;20061;-72
2023/06/26 02:05:07;;;;;;;17.23;15.07;;;;;;;22.80;100.00;101067.75;5031164;28;20978;-72
2023/06/26 02:07:33;;;;;;;20.40;15.90;;;;;;;22.87;100.00;101081.50;5031772;28;20107;-73
2023/06/26 02:10:00;;;;;;;18.13;14.82;;;;;;;22.90;100.00;101073.91;5034871;28;20041;-72
2023/06/26 02:12:25;;;;;;;18.75;15.07;;;;;;;22.95;100.00;101089.72;5031032;28;20714;-72
2023/06/26 02:14:51;;;;;;;19.40;14.98;;;;;;;22.87;100.00;101078.78;5036206;28;20053;-73
2023/06/26 02:17:22;;;;;;;19.80;15.20;;;;;;;22.86;100.00;101091.53;5036795;28;20293;-73
2023/06/26 02:19:48;;;;;;;19.65;15.20;;;;;;;22.88;100.00;101094.97;5065355;28;20046;-73
2023/06/26 02:22:15;;;;;;;17.92;13.95;;;;;;;22.87;100.00;101101.41;5037377;28;20429;-73
2023/06/26 02:24:42;;;;;;;16.80;14.10;;;;;;;22.99;100.00;101091.91;5037478;28;20029;-73
2023/06/26 02:27:08;;;;;;;25.38;14.13;;;;;;;23.08;100.00;101095.44;5037228;28;20036;-74
2023/06/26 02:29:35;;;;;;;18.77;14.40;;;;;;;22.89;100.00;101096.69;5032848;28;20021;-73
2023/06/26 02:32:01;;;;;;;17.95;13.93;;;;;;;22.94;100.00;101105.19;5032339;28;20041;-73
2023/06/26 02:34:27;;;;;;;20.30;14.60;;;;;;;22.90;100.00;101111.13;5037531;28;20036;-73
2023/06/26 02:36:56;;;;;;;23.58;14.63;;;;;;;22.89;100.00;101098.53;5032490;28;20025;-73
2023/06/26 02:39:22;;;;;;;15.63;13.02;;;;;;;22.75;100.00;101103.63;5037981;28;20091;-72
2023/06/26 02:41:48;;;;;;;20.33;12.25;;;;;;;22.80;100.00;101088.66;5043177;28;20033;-72
2023/06/26 02:44:14;;;;;;;17.27;12.80;;;;;;;22.69;100.00;101103.44;5042470;28;20040;-73
2023/06/26 02:46:40;;;;;;;16.67;12.50;;;;;;;22.80;100.00;101099.53;5039686;28;20751;-73
2023/06/26 02:49:07;;;;;;;15.55;12.35;;;;;;;22.68;100.00;101097.16;5037123;28;20045;-73
2023/06/26 02:51:33;;;;;;;17.48;11.43;;;;;;;22.63;100.00;101101.41;5043859;28;20048;-73
2023/06/26 02:54:02;;;;;;;14.93;10.85;;;;;;;22.69;100.00;101106.16;5074816;28;20029;-73
2023/06/26 02:56:31;;;;;;;13.18;10.57;;;;;;;22.43;100.00;101109.03;5053349;28;20272;-73
2023/06/26 02:58:58;;;;;;;13.73;10.20;;;;;;;22.48;100.00;101118.38;5044492;28;20080;-73
2023/06/26 03:01:24;;;;;;;11.00;8.55;;;;;;;22.43;100.00;101109.88;5045629;28;20033;-74
2023/06/26 03:03:51;;;;;;;14.57;8.77;;;;;;;22.35;100.00;101114.47;5063417;28;20033;-73
2023/06/26 03:06:17;;;;;;;9.73;7.07;;;;;;;22.27;100.00;101125.31;5027704;28;20038;-74
2023/06/26 03:08:44;;;;;;;16.27;7.28;;;;;;;22.39;100.00;101123.97;5051261;28;20034;-74
2023/06/26 03:11:10;;;;;;;15.23;7.07;;;;;;;22.39;100.00;101122.13;5034648;28;20033;-73
2023/06/26 03:13:37;;;;;;;13.25;7.47;;;;;;;22.19;100.00;101124.28;5055669;28;20064;-73
2023/06/26 03:16:04;;;;;;;14.45;7.53;;;;;;;22.35;100.00;101139.78;5057552;28;20052;-72
2023/06/26 03:18:30;;;;;;;9.63;7.25;;;;;;;22.32;100.00;101133.81;5047365;28;20037;-72
2023/06/26 03:20:56;;;;;;;10.88;7.68;;;;;;;22.35;100.00;101136.22;5051024;28;20041;-72
2023/06/26 03:23:23;;;;;;;13.75;7.35;;;;;;;22.23;100.00;101133.78;5059075;28;20147;-72
2023/06/26 03:25:49;;;;;;;13.30;7.00;;;;;;;22.24;100.00;101140.09;5046429;28;20144;-72
2023/06/26 03:28:24;;;;;;;18.73;7.03;;;;;;;22.13;100.00;101140.38;5087890;28;20036;-72
2023/06/26 03:30:50;;;;;;;16.15;6.82;;;;;;;22.10;100.00;101146.13;5045959;28;20631;-72
2023/06/26 03:33:16;;;;;;;15.60;6.72;;;;;;;22.19;100.00;101146.03;5057829;28;20033;-72
2023/06/26 03:35:42;;;;;;;12.27;6.65;;;;;;;22.23;100.00;101139.22;5072665;28;20152;-72
2023/06/26 03:38:10;;;;;;;12.27;6.72;;;;;;;22.37;100.00;101145.88;5073788;28;20042;-71
2023/06/26 03:40:36;;;;;;;20.42;6.28;;;;;;;22.43;100.00;101144.34;5049219;28;20044;-72
2023/06/26 03:43:02;;;;;;;10.23;5.97;;;;;;;22.27;100.00;101139.75;5039825;28;20041;-73
2023/06/26 03:45:32;;;;;;;16.30;6.90;;;;;;;22.19;100.00;101151.44;5048835;28;20032;-72
2023/06/26 03:47:58;;;;;;;12.50;7.03;;;;;;;22.34;100.00;101145.34;5037532;28;20403;-72
2023/06/26 03:50:23;;;;;;;13.85;6.72;;;;;;;22.22;100.00;101153.81;5035054;28;20038;-72
2023/06/26 03:52:51;;;;;;;10.02;6.20;;;;;;;22.39;100.00;101151.13;5038769;28;20117;-72
2023/06/26 03:55:17;;;;;;;13.30;6.60;;;;;;;22.31;100.00;101146.53;5035252;28;20034;-72
2023/06/26 03:57:44;;;;;;;13.70;6.60;;;;;;;22.27;100.00;101139.75;5036719;28;20033;-71
2023/06/26 04:00:12;;;;;;;18.70;7.43;;;;;;;22.33;100.00;101157.25;5057383;28;20046;-72
2023/06/26 04:02:41;;;;;;;17.25;7.57;;;;;;;22.06;100.00;101150.19;5039199;28;20037;-71
2023/06/26 04:05:07;;;;;;;10.48;7.10;;;;;;;21.98;100.00;101151.84;5034657;28;20122;-72
2023/06/26 04:07:34;;;;;;;15.98;7.88;;;;;;;21.98;100.00;101150.97;5033925;28;20069;-74
2023/06/26 04:10:00;;;;;;;14.60;7.78;;;;;;;22.02;100.00;101160.50;5041618;28;20050;-74
2023/06/26 04:12:27;;;;;;;11.90;6.75;;;;;;;22.17;100.00;101161.63;5045691;28;20031;-72
2023/06/26 04:14:52;;;;;;;15.73;8.05;;;;;;;22.04;100.00;101165.78;5034324;28;20076;-73
2023/06/26 04:17:18;;;;;;;14.43;7.40;;;;;;;21.98;100.00;101159.97;5041921;28;20068;-71
2023/06/26 04:19:43;;;;;;;15.73;8.32;;;;;;;21.98;100.00;101165.41;5046783;28;20056;-72
2023/06/26 04:22:09;;;;;;;26.70;8.00;;;;;;;21.99;100.00;101169.00;5024053;28;20048;-72
2023/06/26 04:24:34;;;;;;;17.38;7.60;;;;;;;22.02;100.00;101159.66;5036080;28;20030;-72
2023/06/26 04:27:00;;;;;;;15.27;7.28;;;;;;;21.93;100.00;101173.19;5036070;28;20876;-73
2023/06/26 04:29:26;;;;;;;16.30;7.78;;;;;;;22.07;100.00;101170.88;5037836;28;20076;-71
2023/06/26 04:31:57;;;;;;;22.77;8.00;;;;;;;22.21;100.00;101178.44;5034269;28;20454;-74
2023/06/26 04:34:32;;;;;;;19.83;6.90;;;;;;;22.18;100.00;101181.47;5036771;28;20113;-71
2023/06/26 04:36:58;;;;;;;22.95;8.38;;;;;;;22.15;100.00;101179.97;5040155;28;20041;-73
2023/06/26 04:39:23;;;;;;;19.95;8.15;;;;;;;22.23;100.00;101190.84;5033379;28;20052;-73
2023/06/26 04:41:49;;;;;;;23.92;8.25;;;;;;;22.26;100.00;101184.22;5035303;28;20033;-72
2023/06/26 04:44:15;;;;;;;24.70;8.50;;;;;;;22.60;100.00;101200.47;5033647;28;20038;-73
2023/06/26 04:46:44;;;;;;;20.35;8.60;;;;;;;23.04;100.00;101193.91;5034345;28;20533;-72
2023/06/26 04:49:10;;;;;;;18.52;7.28;;;;;;;23.75;100.00;101196.75;5038607;28;20092;-74
2023/06/26 04:51:40;;;;;;;16.10;7.65;;;;;;;23.59;100.00;101195.88;5042836;28;20049;-72
2023/06/26 04:54:10;;;;;;;16.85;8.07;;;;;;;23.08;100.00;101201.56;5042775;28;20040;-71
2023/06/26 04:56:36;;;;;;;16.20;8.15;;;;;;;22.83;100.00;101203.38;5039800;28;20554;-72
2023/06/26 04:59:02;;;;;;;30.50;8.95;;;;;;;22.21;100.00;101201.03;5046889;28;20089;-72
2023/06/26 05:01:29;;;;;;;23.48;9.90;;;;;;;22.03;100.00;101202.94;5034853;28;20466;-74
2023/06/26 05:03:56;;;;;;;19.92;8.15;;;;;;;22.46;100.00;101204.69;5036814;28;20124;-73
2023/06/26 05:06:22;;;;;;;24.08;8.50;;;;;;;23.47;100.00;101212.59;5034974;28;20029;-71
2023/06/26 05:08:48;;;;;;;21.60;8.52;;;;;;;23.58;100.00;101196.91;5032859;28;20829;-71
2023/06/26 05:11:13;;;;;;;19.55;7.78;;;;;;;23.71;100.00;101209.00;5047071;28;20041;-72
2023/06/26 05:13:39;;;;;;;25.88;8.70;;;;;;;23.52;100.00;101203.91;5049346;28;20037;-72
2023/06/26 05:16:08;;;;;;;25.88;8.40;;;;;;;24.40;100.00;101197.50;5045621;28;20100;-73
2023/06/26 05:18:33;;;;;;;22.23;8.40;;;;;;;25.26;92.27;101196.41;5032105;28;20068;-72
2023/06/26 05:20:59;;;;;;;19.95;8.40;;;;;;;25.30;87.68;101198.59;5038882;28;20071;-72
2023/06/26 05:23:25;;;;;;;20.55;8.27;;;;;;;25.97;84.86;101200.47;5044756;28;20033;-72
2023/06/26 05:25:52;;;;;;;20.45;8.63;;;;;;;26.69;81.97;101207.88;5030688;28;20033;-72
2023/06/26 05:28:18;;;;;;;18.40;8.20;;;;;;;27.07;76.25;101213.13;5031632;28;20052;-72
2023/06/26 05:30:43;;;;;;;21.05;8.52;;;;;;;26.21;77.72;101207.50;5046094;28;20036;-73
2023/06/26 05:33:17;;;;;;;20.27;8.95;;;;;;;26.41;76.92;101209.63;5042273;28;20037;-73
2023/06/26 05:35:45;;;;;;;26.63;9.00;;;;;;;26.22;77.88;101216.56;5020228;28;20080;-73
2023/06/26 05:38:13;;;;;;;16.27;7.43;;;;;;;26.24;75.48;101214.47;5063493;28;20033;-71
2023/06/26 05:40:41;;;;;;;21.77;7.90;;;;;;;26.80;73.80;101220.19;5037970;28;20083;-73
2023/06/26 05:43:07;;;;;;;20.25;7.93;;;;;;;26.77;71.91;101223.34;5046841;28;21139;-72
2023/06/26 05:45:33;;;;;;;18.75;8.25;;;;;;;27.13;72.44;101236.16;5047673;28;20191;-73
2023/06/26 05:47:59;;;;;;;22.55;7.63;;;;;;;26.76;71.79;101244.41;5048020;28;20048;-73
2023/06/26 05:50:25;;;;;;;15.88;7.18;;;;;;;27.13;70.66;101247.09;5043258;28;20139;-72
2023/06/26 05:52:51;;;;;;;20.67;7.88;;;;;;;27.50;69.27;101244.06;5041071;28;20594;-72
2023/06/26 05:55:17;;;;;;;23.45;6.78;;;;;;;26.62;70.82;101256.22;5037049;28;20120;-73
2023/06/26 05:57:45;;;;;;;20.73;7.45;;;;;;;26.15;73.66;101254.72;5035731;28;20036;-73
2023/06/26 06:00:12;;;;;;;15.05;7.03;;;;;;;25.80;74.40;101257.19;5045998;28;20393;-73
2023/06/26 06:02:42;;;;;;;18.52;7.65;;;;;;;25.74;73.47;101267.97;5041496;28;21052;-72
2023/06/26 06:05:07;;;;;;;16.27;7.00;;;;;;;25.40;76.41;101273.91;5046523;28;20041;-73
2023/06/26 06:07:34;;;;;;;15.90;7.35;;;;;;;25.29;77.81;101265.13;5043659;28;20060;-72
2023/06/26 06:10:00;;;;;;;18.00;6.75;;;;;;;25.19;79.21;101280.06;5042706;28;20048;-72
2023/06/26 06:12:26;;;;;;;15.82;6.88;;;;;;;24.78;79.24;101289.34;5045051;28;20049;-72
2023/06/26 06:14:52;;;;;;;13.05;5.78;;;;;;;24.97;81.83;101289.91;5046939;28;20033;-72
2023/06/26 06:17:19;;;;;;;20.55;6.53;;;;;;;25.64;77.70;101290.09;5044663;28;20043;-72
2023/06/26 06:19:45;;;;;;;18.05;6.97;;;;;;;26.43;74.05;101289.66;5046377;28;20043;-73
2023/06/26 06:22:11;;;;;;;21.23;7.32;;;;;;;27.13;73.33;101291.75;5045718;28;20030;-73
2023/06/26 06:24:37;;;;;;;14.45;6.45;;;;;;;26.79;70.34;101295.13;5042867;28;20041;-74
2023/06/26 06:27:03;;;;;;;11.63;5.75;;;;;;;26.67;69.39;101294.78;5031474;28;20037;-72
2023/06/26 06:29:28;;;;;;;13.60;6.30;;;;;;;27.00;68.70;101297.06;5037843;28;20048;-73
2023/06/26 06:31:54;;;;;;;18.25;6.72;;;;;;;26.67;68.68;101313.09;5031744;28;20144;-74
2023/06/26 06:34:19;;;;;;;16.17;6.00;;;;;;;27.12;67.26;101314.72;5033368;28;20152;-73
2023/06/26 06:36:46;;;;;;;16.77;6.38;;;;;;;27.49;67.08;101323.72;5033874;28;20033;-73
2023/06/26 06:39:12;;;;;;;13.13;6.07;;;;;;;27.12;65.28;101322.94;5043908;28;20091;-73
2023/06/26 06:41:38;;;;;;;14.48;6.35;;;;;;;27.61;63.96;101328.47;5047083;28;20997;-73
2023/06/26 06:44:05;;;;;;;13.73;5.78;;;;;;;27.35;63.67;101333.69;5047226;28;20033;-73
2023/06/26 06:46:31;;;;;;;13.32;5.47;;;;;;;27.34;63.27;101338.31;5044801;28;20106;-73
2023/06/26 06:48:56;;;;;;;13.82;5.50;;;;;;;27.25;62.68;101331.28;5040245;28;20030;-73
2023/06/26 06:51:22;;;;;;;14.15;5.20;;;;;;;27.22;62.45;101339.03;5042393;28;20045;-73
2023/06/26 06:53:48;;;;;;;13.50;5.30;;;;;;;27.25;63.06;101334.00;5038079;28;21208;-73
2023/06/26 06:56:13;;;;;;;12.23;5.13;;;;;;;27.55;61.65;101334.72;5045314;28;20081;-74
2023/06/26 06:58:42;;;;;;;9.10;4.07;;;;;;;27.42;59.98;101336.50;5032202;28;20692;-72
2023/06/26 07:01:10;;;;;;;10.75;5.43;;;;;;;27.74;59.97;101337.88;5049113;28;20108;-74
2023/06/26 07:03:35;;;;;;;9.27;4.00;;;;;;;27.45;58.59;101339.69;5049486;28;20925;-74
2023/06/26 07:06:03;;;;;;;7.28;4.55;;;;;;;27.55;57.79;101351.16;5046045;28;20040;-74
2023/06/26 07:08:29;;;;;;;10.70;3.83;;;;;;;27.28;56.90;101344.59;5045552;28;20969;-74
2023/06/26 07:10:56;;;;;;;7.93;3.45;;;;;;;27.26;57.33;101357.63;5042900;28;20037;-73
2023/06/26 07:13:22;;;;;;;9.32;3.92;;;;;;;26.91;57.49;101361.16;5034981;28;20038;-74
2023/06/26 07:15:48;;;;;;;8.60;3.63;;;;;;;26.82;58.29;101363.19;5030426;28;20132;-74
2023/06/26 07:18:14;;;;;;;7.28;3.42;;;;;;;26.73;57.83;101367.06;5028920;28;20037;-73
2023/06/26 07:20:40;;;;;;;8.73;3.95;;;;;;;26.71;57.24;101367.25;5032646;28;20042;-72
2023/06/26 07:23:06;;;;;;;7.40;4.07;;;;;;;27.07;57.65;101372.78;5033802;28;20513;-73
2023/06/26 07:25:32;;;;;;;6.50;3.55;;;;;;;26.78;57.75;101378.28;5033540;28;20041;-72
2023/06/26 07:27:57;;;;;;;5.22;3.40;;;;;;;26.76;58.05;101375.75;5036266;28;20119;-73
2023/06/26 07:30:24;;;;;;;6.38;3.90;;;;;;;26.54;60.20;101377.53;5032223;28;20534;-73
2023/06/26 07:32:49;;;;;;;8.40;3.42;;;;;;;26.98;59.67;101384.88;5068247;28;20040;-73
2023/06/26 07:35:15;;;;;;;8.20;3.97;;;;;;;26.64;59.60;101381.88;5031020;28;20030;-73
2023/06/26 07:37:41;;;;;;;10.73;4.32;;;;;;;26.80;59.77;101387.16;5040806;28;20040;-72
2023/06/26 07:40:08;;;;;;;9.23;3.97;;;;;;;27.42;60.00;101396.78;5032028;28;20095;-72
2023/06/26 07:42:33;;;;;;;9.23;3.78;;;;;;;27.33;59.28;101394.16;5043275;28;20033;-73
2023/06/26 07:44:59;;;;;;;9.52;3.97;;;;;;;27.73;58.68;101402.81;5046828;28;20398;-73
2023/06/26 07:47:25;;;;;;;12.10;4.15;;;;;;;27.80;57.92;101391.91;5046499;28;20418;-73
2023/06/26 07:49:50;;;;;;;10.07;3.80;;;;;;;27.40;57.02;101402.44;5035403;28;20483;-73
2023/06/26 07:52:16;;;;;;;8.38;4.40;;;;;;;27.40;59.19;101405.16;5037239;28;20052;-73
2023/06/26 07:54:41;;;;;;;7.50;3.78;;;;;;;27.69;57.59;101408.84;5038747;28;20036;-74
2023/06/26 07:57:08;;;;;;;9.18;4.50;;;;;;;27.44;58.35;101406.50;5039472;28;20148;-71
2023/06/26 07:59:34;;;;;;;6.38;4.00;;;;;;;27.00;59.25;101410.16;5041259;28;20041;-75
2023/06/26 08:02:01;;;;;;;8.15;4.10;;;;;;;26.72;59.61;101417.38;5046502;28;20282;-74
2023/06/26 08:04:30;;;;;;;6.82;3.97;;;;;;;26.35;60.36;101419.09;5049360;28;20116;-72
2023/06/26 08:06:57;;;;;;;9.00;4.00;;;;;;;26.43;60.86;101423.66;5048116;28;20098;-72
2023/06/26 08:09:25;;;;;;;6.50;4.20;;;;;;;26.66;59.44;101421.72;5040004;28;20037;-73
2023/06/26 08:11:51;;;;;;;6.72;3.78;;;;;;;27.12;60.10;101421.50;5039930;28;20023;-73
2023/06/26 08:14:18;;;;;;;7.10;4.15;;;;;;;26.78;60.80;101422.94;5050868;28;20546;-73
2023/06/26 08:16:45;;;;;;;8.27;3.78;;;;;;;27.60;61.17;101425.41;5045142;28;20041;-73
2023/06/26 08:19:12;;;;;;;8.63;3.97;;;;;;;28.38;57.46;101415.41;5042418;28;20085;-72
2023/06/26 08:21:37;;;;;;;8.43;4.20;;;;;;;27.94;56.72;101421.13;5047565;28;20044;-75
2023/06/26 08:24:03;;;;;;;13.95;4.70;;;;;;;27.30;58.27;101432.88;5053509;28;20056;-72
2023/06/26 08:26:29;;;;;;;9.88;3.63;;;;;;;27.22;57.17;101432.16;5043599;28;20541;-72
2023/06/26 08:28:55;;;;;;;8.20;4.32;;;;;;;27.63;58.39;101424.19;5049712;28;20040;-73
2023/06/26 08:31:20;;;;;;;9.73;4.18;;;;;;;27.79;57.03;101431.31;5043040;28;20333;-73
2023/06/26 08:33:46;;;;;;;7.72;4.10;;;;;;;27.36;57.36;101432.13;5044023;28;20844;-73
2023/06/26 08:36:12;;;;;;;9.32;4.18;;;;;;;28.09;61.25;101435.63;5043762;28;21077;-74
2023/06/26 08:38:40;;;;;;;7.68;4.15;;;;;;;27.32;57.44;101438.19;5042729;28;20851;-73
2023/06/26 08:41:09;;;;;;;8.50;4.22;;;;;;;27.30;59.48;101438.34;5050084;28;20021;-72
2023/06/26 08:43:35;;;;;;;6.45;3.75;;;;;;;27.61;57.72;101439.97;5048926;28;20037;-73
2023/06/26 08:46:02;;;;;;;7.43;4.13;;;;;;;27.63;58.60;101444.22;5043947;28;20073;-73
2023/06/26 08:48:33;;;;;;;8.75;3.92;;;;;;;27.79;57.90;101456.00;5052106;28;20055;-73
2023/06/26 08:51:05;;;;;;;9.88;3.53;;;;;;;27.92;56.98;101447.06;5046525;28;20135;-73
2023/06/26 08:53:47;;;;;;;5.55;4.00;;;;;;;28.57;57.82;101440.44;5036332;28;20038;-73
2023/06/26 08:56:17;;;;;;;7.93;4.22;;;;;;;28.93;57.04;101444.88;5072309;27;20046;-72
2023/06/26 08:58:42;;;;;;;7.45;4.00;;;;;;;28.55;54.84;101450.75;5035557;28;20097;-73
2023/06/26 09:01:09;;;;;;;8.32;4.20;;;;;;;27.60;57.52;101460.19;5036472;28;20037;-72
2023/06/26 09:03:37;;;;;;;7.22;4.00;;;;;;;26.95;59.04;101458.31;5036796;28;20149;-73
2023/06/26 09:06:03;;;;;;;9.65;4.07;;;;;;;26.63;58.23;101454.91;5047813;28;20068;-74
2023/06/26 09:08:29;;;;;;;13.93;4.93;;;;;;;26.14;60.36;101468.19;5037047;28;20962;-74
2023/06/26 09:10:54;;;;;;;10.60;4.18;;;;;;;26.60;60.10;101460.75;5043279;28;20037;-73
2023/06/26 09:13:20;;;;;;;9.63;4.13;;;;;;;27.17;57.92;101468.34;5039175;28;20394;-72
2023/06/26 09:15:46;;;;;;;11.77;4.43;;;;;;;27.47;57.56;101477.34;5042025;28;20945;-73
2023/06/26 09:18:13;;;;;;;5.97;3.83;;;;;;;27.28;55.29;101476.06;5043830;28;20029;-73
2023/06/26 09:20:39;;;;;;;6.95;3.42;;;;;;;27.51;54.88;101470.44;5032723;28;20201;-73
2023/06/26 09:23:05;;;;;;;11.02;3.83;;;;;;;27.69;55.51;101475.47;5050475;28;20094;-73
2023/06/26 09:25:31;;;;;;;14.85;4.43;;;;;;;27.57;53.16;101485.25;5040046;28;20478;-72
2023/06/26 09:27:57;;;;;;;6.82;3.28;;;;;;;27.09;53.33;101482.97;5035317;28;20979;-73
2023/06/26 09:30:23;;;;;;;7.72;3.22;;;;;;;27.13;54.51;101488.91;5032691;28;20148;-73
2023/06/26 09:32:54;;;;;;;8.15;3.28;;;;;;;26.65;54.60;101485.66;5041274;28;20033;-73
2023/06/26 09:35:19;;;;;;;13.07;3.77;;;;;;;26.98;53.90;101488.06;5033069;28;20041;-73
2023/06/26 09:37:45;;;;;;;7.20;2.72;;;;;;;27.25;54.83;101495.59;5033502;28;20431;-73
2023/06/26 09:40:14;;;;;;;5.60;2.50;;;;;;;27.02;53.59;101500.31;5039550;28;20324;-72
2023/06/26 09:42:39;;;;;;;5.65;2.78;;;;;;;26.97;53.92;101487.19;5045614;28;20153;-71
2023/06/26 09:45:05;;;;;;;4.22;2.55;;;;;;;26.98;51.90;101491.63;5027861;28;20048;-73
2023/06/26 09:47:33;;;;;;;7.50;2.10;;;;;;;26.75;49.91;101496.34;5031480;28;20598;-73
2023/06/26 09:49:59;;;;;;;5.03;2.08;;;;;;;26.93;50.84;101499.56;5014642;28;20529;-74
2023/06/26 09:52:29;;;;;;;6.93;1.92;;;;;;;26.94;49.56;101505.88;5032372;28;20041;-73
2023/06/26 09:55:11;;;;;;;3.45;1.90;;;;;;;26.79;46.34;101514.94;5034118;28;20045;-73
2023/06/26 09:57:38;;;;;;;3.67;1.58;;;;;;;26.62;46.30;101512.56;5044665;28;20033;-72
2023/06/26 10:00:04;;;;;;;3.50;1.80;;;;;;;26.39;46.73;101523.50;5046358;28;20037;-74
2023/06/26 10:02:38;;;;;;;4.57;1.45;;;;;;;25.50;47.79;101520.31;5033972;28;20141;-74
2023/06/26 10:05:03;;;;;;;4.88;2.00;;;;;;;25.99;49.79;101520.06;5036116;28;20060;-73
2023/06/26 10:07:29;;;;;;;4.40;1.95;;;;;;;26.46;50.70;101527.25;5034313;28;20072;-73
2023/06/26 10:09:56;;;;;;;6.43;2.10;;;;;;;26.95;52.86;101518.53;5038291;28;20151;-73
2023/06/26 10:12:35;;;;;;;7.18;1.95;;;;;;;26.79;49.63;101525.88;5028278;28;20040;-73
2023/06/26 10:15:03;;;;;;;4.65;2.20;;;;;;;26.90;48.81;101527.31;5032150;28;20290;-72
2023/06/26 10:17:32;;;;;;;7.57;2.15;;;;;;;27.07;48.49;101522.50;5062646;28;20048;-73
2023/06/26 10:20:01;;;;;;;6.43;2.05;;;;;;;26.69;50.14;101513.50;5045447;28;20052;-74
2023/06/26 10:22:31;;;;;;;6.10;1.70;;;;;;;27.07;48.69;101528.88;5039604;28;20034;-73
2023/06/26 10:25:00;;;;;;;6.88;1.85;;;;;;;27.03;47.92;101523.91;5036208;28;20041;-73
2023/06/26 10:27:31;;;;;;;6.65;2.13;;;;;;;27.05;49.49;101530.88;5032646;28;20125;-73
2023/06/26 10:30:06;;;;;;;10.80;2.33;;;;;;;27.16;50.44;101542.44;5041711;28;20137;-73
2023/06/26 10:32:32;;;;;;;5.95;2.13;;;;;;;27.52;49.35;101529.69;5044103;28;20116;-72
2023/06/26 10:34:59;;;;;;;6.40;2.30;;;;;;;27.80;49.29;101543.53;5039376;28;20040;-73
2023/06/26 10:37:45;;;;;;;4.05;2.22;;;;;;;27.30;48.76;101558.03;5042615;28;20613;-72
2023/06/26 10:40:12;;;;;;;6.30;1.90;;;;;;;27.03;48.00;101560.38;5043041;28;20041;-72
2023/06/26 10:42:39;;;;;;;5.82;2.00;;;;;;;26.93;47.66;101557.06;5030378;28;20037;-72
2023/06/26 10:45:15;;;;;;;4.28;1.98;;;;;;;26.55;49.54;101556.22;5044058;28;20065;-73
2023/06/26 10:47:45;;;;;;;6.57;2.70;;;;;;;26.74;49.01;101560.31;5030598;28;20132;-73
2023/06/26 10:50:30;;;;;;;6.30;1.98;;;;;;;26.74;49.11;101560.31;5030236;28;20045;-73
2023/06/26 10:53:13;;;;;;;3.92;1.67;;;;;;;26.62;47.67;101559.09;5043871;28;20045;-72
2023/06/26 10:55:48;;;;;;;11.68;2.03;;;;;;;26.76;46.67;101552.78;5032778;28;20044;-72
2023/06/26 10:58:32;;;;;;;5.22;2.05;;;;;;;26.76;46.70;101555.53;5030431;28;20042;-73
2023/06/26 11:01:15;;;;;;;4.15;1.55;;;;;;;26.92;49.51;101554.50;5040596;28;20053;-73
2023/06/26 11:04:03;;;;;;;6.93;1.92;;;;;;;27.35;46.65;101553.69;5030047;28;20025;-73
2023/06/26 11:06:31;;;;;;;7.25;2.00;;;;;;;27.83;47.67;101566.97;5030601;28;20051;-72
2023/06/26 11:09:02;;;;;;;6.25;2.10;;;;;;;27.86;46.83;101572.03;5035502;28;20116;-74
2023/06/26 11:11:53;;;;;;;8.40;2.40;;;;;;;28.00;44.94;101578.53;5029542;28;21380;-72
2023/06/26 11:14:20;;;;;;;10.95;2.10;;;;;;;27.25;44.10;101565.97;5028999;28;20144;-73
2023/06/26 11:16:46;;;;;;;6.30;2.00;;;;;;;27.25;44.47;101579.66;5035160;28;20498;-72
2023/06/26 11:19:14;;;;;;;4.68;1.95;;;;;;;27.35;44.80;101577.47;5032806;28;20029;-75